WetterOnline ( https://www.wetteronline.ch )

Wetter aktuell List auf Sylt

Aktuelles Wetter: List/Sylt (29m)

6-stündlich | Neueste Meldungen
Ortszeit Temperatur Wetter
Mi, 22.05. 14:00 17.1° C leichter Regen
Mi, 22.05. 8:00 15.3° C bewölkt
Mi, 22.05. 2:00 15.5° C bedeckt
Di, 21.05. 20:00 19.1° C leicht bewölkt
Di, 21.05. 14:00 21.0° C wolkenlos
Di, 21.05. 8:00 14.2° C wolkig
Di, 21.05. 2:00 15.3° C wolkenlos
Mo, 20.05. 20:00 20.6° C wolkenlos
Ortszeit Temperatur Wetter
Mi, 22.05. 16:30 18.9° C bedeckt
Mi, 22.05. 16:20 18.9° C bedeckt
Mi, 22.05. 16:10 19.8° C bedeckt
Mi, 22.05. 16:00 18.5° C bedeckt
Mi, 22.05. 15:50 18.5° C bedeckt
Mi, 22.05. 15:40 18.2° C bedeckt
Mi, 22.05. 15:30 17.8° C bedeckt
Mi, 22.05. 15:00 17.5° C bewölkt
Mi, 22.05. 14:30 17.1° C bewölkt
Mi, 22.05. 14:00 17.1° C leichter Regen
Mi, 22.05. 13:30 18.3° C leichter Regen
Ortszeit Relative Feuchte Sichtweite
Mi, 22.05. 14:00 87% 11 km
Mi, 22.05. 8:00 76% 45 km
Mi, 22.05. 2:00 75% 45 km
Di, 21.05. 20:00 65% 45 km
Di, 21.05. 14:00 55% 50 km
Di, 21.05. 8:00 84% 30 km
Di, 21.05. 2:00 83% 30 km
Mo, 20.05. 20:00 59% 50 km
Ortszeit Relative Feuchte Sichtweite
Mi, 22.05. 16:30 80% 30 km
Mi, 22.05. 16:20 80% -
Mi, 22.05. 16:10 80% -
Mi, 22.05. 16:00 82% 28 km
Mi, 22.05. 15:50 82% -
Mi, 22.05. 15:40 83% -
Mi, 22.05. 15:30 83% 28 km
Mi, 22.05. 15:00 84% 28 km
Mi, 22.05. 14:30 86% 28 km
Mi, 22.05. 14:00 87% 11 km
Mi, 22.05. 13:30 76% 35 km
Ortszeit Niederschlagsmenge Niederschlagsart
Mi, 22.05. 14:00 0.4 l/m2 in 6 Std. Regen
Mi, 22.05. 8:00 0.0 l/m2 in 12 Std. -
Mi, 22.05. 2:00 0.0 l/m2 in 6 Std. -
Di, 21.05. 20:00 0.0 l/m2 in 12 Std. -
Di, 21.05. 14:00 0.0 l/m2 in 6 Std. -
Di, 21.05. 8:00 0.0 l/m2 in 12 Std. -
Di, 21.05. 2:00 0.0 l/m2 in 6 Std. -
Mo, 20.05. 20:00 0.0 l/m2 in 12 Std. -
Ortszeit Niederschlagsmenge Niederschlagsart
Mi, 22.05. 16:30 0.0 l/m2 in 30 Min -
Mi, 22.05. 16:20 keine Meldung -
Mi, 22.05. 16:10 keine Meldung -
Mi, 22.05. 16:00 0.0 l/m2 in 1 Std. -
Mi, 22.05. 15:50 keine Meldung -
Mi, 22.05. 15:40 keine Meldung -
Mi, 22.05. 15:30 0.0 l/m2 in 30 Min -
Mi, 22.05. 15:00 0.1 l/m2 in 1 Std. Regen
Mi, 22.05. 14:30 <0.05 l/m2 in 30 Min Schneeregen
Mi, 22.05. 14:00 0.4 l/m2 in 1 Std. Regen
Mi, 22.05. 13:30 <0.05 l/m2 in 30 Min -
Ortszeit Stärke Spitze Richtung
km/h Bft. km/h Grad Sektor
Mi, 22.05. 14:00 28 4 52 100° O
Mi, 22.05. 8:00 35 5 56 90° O
Mi, 22.05. 2:00 37 5 59 80° O
Di, 21.05. 20:00 37 5 57 90° O
Di, 21.05. 14:00 33 5 52 90° O
Di, 21.05. 8:00 26 4 50 90° O
Di, 21.05. 2:00 29 5 43 100° O
Mo, 20.05. 20:00 28 4 44 100° O
Ortszeit Stärke Spitze Richtung
km/h Bft. km/h Grad Sektor
Mi, 22.05. 16:30 13 3 20 120° SO
Mi, 22.05. 16:20 13 3 - 120° SO
Mi, 22.05. 16:10 11 2 - 120° SO
Mi, 22.05. 16:00 18 3 29 130° SO
Mi, 22.05. 15:50 18 3 - 130° SO
Mi, 22.05. 15:40 18 3 - 130° SO
Mi, 22.05. 15:30 20 4 30 130° SO
Mi, 22.05. 15:00 22 4 36 120° SO
Mi, 22.05. 14:30 25 4 36 110° O
Mi, 22.05. 14:00 28 4 43 100° O
Mi, 22.05. 13:30 26 4 39 120° SO
Ortszeit Untergrenze Bedeckung Gattung
total tief tief mittel hoch
Mi, 22.05. 14:00 1800 m 7/8 7/8 - - -
Mi, 22.05. 8:00 2400 m 8/8 7/8 - - -
Mi, 22.05. 2:00 6900 m 8/8 8/8 - - -
Di, 21.05. 20:00 8400 m 8/8 0/8 - - -
Di, 21.05. 14:00 - 0/8 0/8 - - -
Di, 21.05. 8:00 240 m 5/8 5/8 - - -
Di, 21.05. 2:00 - 0/8 0/8 - - -
Mo, 20.05. 20:00 - 0/8 0/8 - - -
Ortszeit Bedeckungsgrad in Achtel und Wolkenuntergrenze
Mi, 22.05. 16:30 4(660m) 7(2100m) 8(2700m)
Mi, 22.05. 16:20 4(660m) 7(2100m) 8(2700m)
Mi, 22.05. 16:10 8
Mi, 22.05. 16:00 2(1800m) 3(2100m) 8(2700m)
Mi, 22.05. 15:50 2(1800m) 3(2100m) 8(2700m)
Mi, 22.05. 15:40 8
Mi, 22.05. 15:30 7(2100m) 8(2700m)
Mi, 22.05. 15:00 6(1800m) 8(3300m) 8(5400m)
Mi, 22.05. 14:30 2(750m) 7(2400m) 8(3000m)
Mi, 22.05. 14:00 5(1800m) 7(2400m)
Mi, 22.05. 13:30 1(1500m) 7(2100m) 7(2400m)
Ortszeit Luftdruck NN (hPa) Tendenz (hPa in 3 Std.)
Mi, 22.05. 14:00 1009 + 0,7
Mi, 22.05. 8:00 1008 - 0,8
Mi, 22.05. 2:00 1010 - 1,3
Di, 21.05. 20:00 1011 - 1,2
Di, 21.05. 14:00 1014 - 0,9
Di, 21.05. 8:00 1015 - 0,1
Di, 21.05. 2:00 1015 + 0,7
Mo, 20.05. 20:00 1013 + 0,3
Ortszeit Luftdruck NN (hPa) Tendenz (hPa in 3 Std.)
Mi, 22.05. 16:30 1009 + 0,1
Mi, 22.05. 16:20 1009 keine Meldung
Mi, 22.05. 16:10 1009 keine Meldung
Mi, 22.05. 16:00 1009 + 0,3
Mi, 22.05. 15:50 1009 keine Meldung
Mi, 22.05. 15:40 1009 keine Meldung
Mi, 22.05. 15:30 1009 + 0,5
Mi, 22.05. 15:00 1009 + 0,4
Mi, 22.05. 14:30 1009 + 1,0
Mi, 22.05. 14:00 1009 + 0,7
Mi, 22.05. 13:30 1009 + 0,7
Ortszeit Schneehöhe (cm)
Mi, 22.05. 14:00 0
Mi, 22.05. 8:00 0
Mi, 22.05. 2:00 0
Di, 21.05. 20:00 0
Di, 21.05. 14:00 0
Di, 21.05. 8:00 0
Di, 21.05. 2:00 0
Mo, 20.05. 20:00 0
Ortszeit Schneehöhe (cm)
Mi, 22.05. 16:30 0
Mi, 22.05. 16:20 0
Mi, 22.05. 16:10 -
Mi, 22.05. 16:00 0
Mi, 22.05. 15:50 0
Mi, 22.05. 15:40 -
Mi, 22.05. 15:30 0
Mi, 22.05. 15:00 0
Mi, 22.05. 14:30 0
Mi, 22.05. 14:00 0
Mi, 22.05. 13:30 0
Link zu dieser Seite / Seite empfehlen

Das Wetter in ...